createdAt,value
2019-04-11T00:00:31.279Z,6.30
2019-04-11T00:02:57.581Z,6.30
2019-04-11T00:05:23.701Z,6.30
2019-04-11T00:07:49.785Z,6.30
2019-04-11T00:10:17.237Z,6.30
2019-04-11T00:12:43.528Z,6.20
2019-04-11T00:15:10.685Z,6.20
2019-04-11T00:17:36.864Z,6.30
2019-04-11T00:20:04.381Z,6.30
2019-04-11T00:22:30.465Z,6.30
2019-04-11T00:24:56.541Z,6.30
2019-04-11T00:27:22.615Z,6.20
2019-04-11T00:29:48.707Z,6.10
2019-04-11T00:32:14.925Z,6.20
2019-04-11T00:34:41.090Z,6.10
2019-04-11T00:37:07.160Z,6.10
2019-04-11T00:39:33.297Z,6.10
2019-04-11T00:41:59.446Z,6.10
2019-04-11T00:44:25.559Z,6.10
2019-04-11T00:46:52.879Z,6.10
2019-04-11T00:49:19.245Z,6.00
2019-04-11T00:51:45.357Z,6.10
2019-04-11T00:54:11.529Z,6.00
2019-04-11T00:56:37.801Z,5.90
2019-04-11T00:59:03.935Z,6.00
2019-04-11T01:01:30.099Z,6.10
2019-04-11T01:03:56.231Z,6.10
2019-04-11T01:06:22.482Z,6.00
2019-04-11T01:08:48.718Z,6.00
2019-04-11T01:11:16.029Z,6.00
2019-04-11T01:13:49.190Z,5.90
2019-04-11T01:16:18.389Z,5.90
2019-04-11T01:18:44.518Z,6.00
2019-04-11T01:21:10.661Z,5.80
2019-04-11T01:23:37.349Z,5.70
2019-04-11T01:26:03.587Z,5.70
2019-04-11T01:28:29.663Z,5.80
2019-04-11T01:31:01.031Z,5.90
2019-04-11T01:33:27.513Z,5.90
2019-04-11T01:35:53.719Z,5.90
2019-04-11T01:38:22.698Z,5.70
2019-04-11T01:40:47.933Z,5.70
2019-04-11T01:43:14.049Z,5.40
2019-04-11T01:45:41.339Z,5.50
2019-04-11T01:48:27.794Z,5.50
2019-04-11T01:50:54.096Z,5.50
2019-04-11T01:53:20.231Z,5.30
2019-04-11T01:55:46.394Z,5.10
2019-04-11T01:58:12.491Z,5.20
2019-04-11T02:00:58.874Z,5.20
2019-04-11T02:03:30.854Z,5.20
2019-04-11T02:05:57.128Z,5.20
2019-04-11T02:08:23.331Z,5.40
2019-04-11T02:10:50.809Z,5.30
2019-04-11T02:13:17.525Z,5.40
2019-04-11T02:15:44.207Z,5.50
2019-04-11T02:18:10.956Z,5.40
2019-04-11T02:20:37.243Z,5.40
2019-04-11T02:23:06.655Z,5.50
2019-04-11T02:25:47.110Z,5.30
2019-04-11T02:28:15.239Z,5.40
2019-04-11T02:30:45.728Z,5.30
2019-04-11T02:33:13.343Z,5.20
2019-04-11T02:35:40.423Z,5.10
2019-04-11T02:38:09.512Z,5.10
2019-04-11T02:40:36.743Z,5.00
2019-04-11T02:43:04.689Z,4.90
2019-04-11T02:45:45.138Z,5.00
2019-04-11T02:48:01.376Z,5.00
2019-04-11T02:50:27.829Z,5.00
2019-04-11T02:52:54.159Z,4.70
2019-04-11T02:55:21.057Z,4.50
2019-04-11T02:57:48.258Z,4.40
2019-04-11T03:00:15.883Z,4.20
2019-04-11T03:02:44.451Z,4.20
2019-04-11T03:05:12.044Z,4.00
2019-04-11T03:07:40.130Z,4.10
2019-04-11T03:10:07.387Z,4.10
2019-04-11T03:12:36.123Z,3.80
2019-04-11T03:15:19.947Z,3.80
2019-04-11T03:17:38.533Z,3.70
2019-04-11T03:20:13.043Z,3.70
2019-04-11T03:22:29.983Z,3.80
2019-04-11T03:24:58.349Z,3.80
2019-04-11T03:27:26.604Z,3.90
2019-04-11T03:29:53.864Z,4.00
2019-04-11T03:35:34.935Z,3.80
2019-04-11T03:37:47.789Z,4.00
2019-04-11T03:40:07.932Z,3.70
2019-04-11T03:42:28.603Z,3.80
2019-04-11T03:44:47.045Z,3.70
2019-04-11T03:47:25.374Z,3.60
2019-04-11T03:49:46.787Z,3.50
2019-04-11T03:52:09.783Z,3.40
2019-04-11T03:54:36.705Z,3.50
2019-04-11T03:57:05.481Z,3.60
2019-04-11T03:59:33.772Z,3.70
2019-04-11T04:02:00.821Z,4.00
2019-04-11T04:04:28.947Z,4.10
2019-04-11T04:06:57.126Z,4.10
2019-04-11T04:09:24.748Z,4.10
2019-04-11T04:11:54.523Z,4.20
2019-04-11T04:14:44.531Z,4.20
2019-04-11T04:17:14.901Z,4.20
2019-04-11T04:19:54.100Z,4.20
2019-04-11T04:22:29.433Z,4.30
2019-04-11T04:24:56.416Z,4.30
2019-04-11T04:27:25.167Z,4.30
2019-04-11T04:29:53.823Z,4.30
2019-04-11T04:32:20.573Z,4.30
2019-04-11T04:34:48.543Z,4.40
2019-04-11T04:37:16.259Z,4.40
2019-04-11T04:39:45.613Z,4.50
2019-04-11T04:42:23.525Z,4.60
2019-04-11T04:44:40.862Z,4.50
2019-04-11T04:47:17.989Z,4.40
2019-04-11T04:49:37.039Z,4.40
2019-04-11T04:52:05.911Z,4.40
2019-04-11T04:54:33.417Z,4.50
2019-04-11T04:57:00.961Z,4.40
2019-04-11T04:59:28.155Z,4.40
2019-04-11T05:01:55.517Z,4.50
2019-04-11T05:04:23.460Z,4.40
2019-04-11T05:06:50.835Z,4.20
2019-04-11T05:09:17.993Z,4.20
2019-04-11T05:11:44.684Z,4.30
2019-04-11T05:14:12.430Z,4.40
2019-04-11T05:16:38.708Z,4.50
2019-04-11T05:19:04.778Z,4.40
2019-04-11T05:21:30.980Z,4.40
2019-04-11T05:23:57.098Z,4.40
2019-04-11T05:26:23.630Z,4.40
2019-04-11T05:28:50.970Z,4.50
2019-04-11T05:31:18.222Z,4.60
2019-04-11T05:33:45.644Z,4.50
2019-04-11T05:36:12.307Z,4.60
2019-04-11T05:38:38.580Z,4.50
2019-04-11T05:41:09.500Z,4.60
2019-04-11T05:43:37.237Z,4.70
2019-04-11T05:46:03.197Z,4.80
2019-04-11T05:48:47.689Z,4.80
2019-04-11T05:51:18.526Z,4.90
2019-04-11T05:53:41.847Z,4.90
2019-04-11T05:56:09.160Z,5.00
2019-04-11T05:58:36.738Z,5.10
2019-04-11T06:01:18.015Z,5.10
2019-04-11T06:03:45.496Z,5.10
2019-04-11T06:06:20.650Z,5.10
2019-04-11T06:08:48.281Z,5.20
2019-04-11T06:11:20.625Z,5.30
2019-04-11T06:13:56.511Z,5.70
2019-04-11T06:16:23.988Z,5.70
2019-04-11T06:19:01.569Z,5.60
2019-04-11T06:21:29.593Z,5.60
2019-04-11T06:24:14.625Z,5.60
2019-04-11T06:27:00.810Z,5.70
2019-04-11T06:29:29.925Z,5.70
2019-04-11T06:32:01.378Z,5.80
2019-04-11T06:34:30.406Z,5.80
2019-04-11T06:37:15.511Z,5.80
2019-04-11T06:39:43.743Z,5.80
2019-04-11T06:42:15.005Z,5.80
2019-04-11T06:44:50.112Z,6.10
2019-04-11T06:47:34.904Z,6.20
2019-04-11T06:50:17.946Z,6.20
2019-04-11T06:52:45.565Z,6.20
2019-04-11T06:55:16.653Z,6.30
2019-04-11T06:57:45.826Z,6.40
2019-04-11T07:00:14.747Z,6.40
2019-04-11T07:02:46.586Z,6.60
2019-04-11T07:05:16.117Z,6.80
2019-04-11T07:07:45.099Z,6.80
2019-04-11T07:10:11.749Z,6.80
2019-04-11T07:12:49.351Z,7.00
2019-04-11T07:15:18.732Z,7.00
2019-04-11T07:18:06.055Z,6.70
2019-04-11T07:20:50.264Z,6.80
2019-04-11T07:23:36.327Z,7.00
2019-04-11T07:26:13.766Z,7.10
2019-04-11T07:28:41.942Z,7.30
2019-04-11T07:31:19.336Z,7.40
2019-04-11T07:33:47.480Z,7.50
2019-04-11T07:36:32.037Z,7.60
2019-04-11T07:39:05.951Z,7.80
2019-04-11T07:41:38.528Z,7.90
2019-04-11T07:44:28.446Z,7.90
2019-04-11T07:47:14.529Z,8.00
2019-04-11T07:49:35.206Z,8.00
2019-04-11T07:52:15.838Z,8.10
2019-04-11T07:54:43.241Z,8.00
2019-04-11T07:57:14.936Z,8.00
2019-04-11T07:59:46.748Z,7.90
2019-04-11T08:02:31.860Z,7.70
2019-04-11T08:05:16.729Z,7.90
2019-04-11T08:08:00.377Z,8.20
2019-04-11T08:10:29.385Z,8.00
2019-04-11T08:12:58.251Z,8.10
2019-04-11T08:15:29.352Z,8.40
2019-04-11T08:17:58.231Z,8.30
2019-04-11T08:20:43.598Z,8.40
2019-04-11T08:23:09.889Z,8.60
2019-04-11T08:25:53.652Z,9.00
2019-04-11T08:28:20.583Z,8.90
2019-04-11T08:30:55.174Z,9.20
2019-04-11T08:33:24.542Z,9.30
2019-04-11T08:35:54.046Z,9.60
2019-04-11T08:38:22.594Z,9.40
2019-04-11T08:40:51.389Z,9.30
2019-04-11T08:43:31.469Z,9.40
2019-04-11T08:46:12.654Z,9.30
2019-04-11T08:48:44.164Z,9.50
2019-04-11T08:51:12.445Z,9.60
2019-04-11T08:53:44.860Z,9.40
2019-04-11T08:56:12.684Z,9.40
2019-04-11T08:58:47.049Z,9.60
2019-04-11T09:01:15.930Z,9.60
2019-04-11T09:04:06.816Z,9.70
2019-04-11T09:06:30.800Z,10.30
2019-04-11T09:09:15.246Z,10.30
2019-04-11T09:11:44.607Z,10.40
2019-04-11T09:14:13.756Z,10.60
2019-04-11T09:16:54.228Z,10.30
2019-04-11T09:19:41.075Z,10.40
2019-04-11T09:22:21.153Z,10.70
2019-04-11T09:24:58.963Z,10.60
2019-04-11T09:27:45.515Z,10.50
2019-04-11T09:30:23.601Z,10.20
2019-04-11T09:33:06.857Z,10.00
2019-04-11T09:35:44.204Z,10.20
2019-04-11T09:38:12.222Z,10.30
2019-04-11T09:40:43.731Z,10.30
2019-04-11T09:43:11.938Z,10.30
2019-04-11T09:45:43.926Z,10.10
2019-04-11T09:48:29.443Z,10.50
2019-04-11T09:51:03.794Z,11.20
2019-04-11T09:53:30.376Z,11.50
2019-04-11T09:56:07.042Z,11.30
2019-04-11T09:58:33.729Z,11.50
2019-04-11T10:01:01.958Z,12.00
2019-04-11T10:03:30.062Z,12.20
2019-04-11T10:06:05.233Z,11.90
2019-04-11T10:08:39.599Z,12.20
2019-04-11T10:11:24.506Z,12.20
2019-04-11T10:13:53.269Z,12.40
2019-04-11T10:16:24.297Z,11.80
2019-04-11T10:19:09.052Z,12.10
2019-04-11T10:21:43.707Z,12.50
2019-04-11T10:24:27.221Z,12.70
2019-04-11T10:27:10.036Z,12.40
2019-04-11T10:29:38.151Z,12.00
2019-04-11T10:32:06.713Z,12.50
2019-04-11T10:34:37.607Z,12.60
2019-04-11T10:37:05.317Z,12.60
2019-04-11T10:39:33.424Z,12.60
2019-04-11T10:42:02.185Z,12.80
2019-04-11T10:44:30.441Z,13.40
2019-04-11T10:47:07.238Z,13.60
2019-04-11T10:49:52.551Z,13.30
2019-04-11T10:52:30.717Z,12.60
2019-04-11T10:55:09.386Z,12.50
2019-04-11T10:57:38.252Z,12.90
2019-04-11T11:00:07.566Z,13.30
2019-04-11T11:02:41.862Z,13.30
2019-04-11T11:05:09.766Z,13.40
2019-04-11T11:07:36.728Z,13.50
2019-04-11T11:10:07.320Z,13.50
2019-04-11T11:12:35.435Z,13.50
2019-04-11T11:15:13.608Z,13.00
2019-04-11T11:18:20.648Z,12.20
2019-04-11T11:20:42.991Z,12.40
2019-04-11T11:23:25.185Z,12.90
2019-04-11T11:26:12.482Z,12.80
2019-04-11T11:28:41.058Z,12.90
2019-04-11T11:31:11.982Z,12.90
2019-04-11T11:33:38.588Z,13.00
2019-04-11T11:36:08.980Z,13.10
2019-04-11T11:38:35.792Z,13.00
2019-04-11T11:41:20.709Z,13.10
2019-04-11T11:43:48.814Z,12.80
2019-04-11T11:46:26.665Z,13.40
2019-04-11T11:48:59.262Z,13.50
2019-04-11T11:51:35.895Z,13.10
2019-04-11T11:54:09.806Z,13.10
2019-04-11T11:56:38.093Z,13.50
2019-04-11T11:59:13.217Z,13.10
2019-04-11T12:01:45.125Z,12.60
2019-04-11T12:04:32.947Z,13.20
2019-04-11T12:07:02.085Z,13.30
2019-04-11T12:09:44.841Z,13.40
2019-04-11T12:12:21.882Z,13.10
2019-04-11T12:14:53.792Z,12.70
2019-04-11T12:17:38.799Z,12.60
2019-04-11T12:20:11.684Z,13.10
2019-04-11T12:22:36.883Z,13.60
2019-04-11T12:25:25.007Z,14.20
2019-04-11T12:28:00.440Z,14.20
2019-04-11T12:30:37.653Z,14.00
2019-04-11T12:33:05.652Z,13.60
2019-04-11T12:35:48.725Z,14.10
2019-04-11T12:38:25.747Z,13.80
2019-04-11T12:41:05.989Z,13.50
2019-04-11T12:43:36.997Z,12.90
2019-04-11T12:46:29.748Z,12.60
2019-04-11T12:48:49.969Z,12.80
2019-04-11T12:51:34.811Z,13.60
2019-04-11T12:54:02.332Z,14.20
2019-04-11T12:56:47.299Z,14.70
2019-04-11T12:59:13.501Z,14.80
2019-04-11T13:01:44.249Z,14.40
2019-04-11T13:04:12.312Z,15.10
2019-04-11T13:06:49.644Z,14.90
2019-04-11T13:09:35.769Z,15.10
2019-04-11T13:12:06.835Z,15.70
2019-04-11T13:14:41.092Z,15.90
2019-04-11T13:17:27.438Z,15.80
2019-04-11T13:20:12.237Z,15.20
2019-04-11T13:22:38.349Z,15.10
2019-04-11T13:25:07.639Z,14.60
2019-04-11T13:27:35.780Z,13.80
2019-04-11T13:30:13.840Z,13.40
2019-04-11T13:32:41.804Z,13.80
2019-04-11T13:35:18.944Z,14.30
2019-04-11T13:37:55.995Z,14.20
2019-04-11T13:40:27.120Z,14.80
2019-04-11T13:43:11.652Z,15.30
2019-04-11T13:45:56.322Z,15.40
2019-04-11T13:48:42.071Z,15.10
2019-04-11T13:51:10.882Z,15.20
2019-04-11T13:53:42.106Z,14.60
2019-04-11T13:56:09.973Z,14.10
2019-04-11T13:58:38.016Z,14.10
2019-04-11T14:01:06.097Z,14.40
2019-04-11T14:03:40.354Z,14.40
2019-04-11T14:06:11.283Z,14.20
2019-04-11T14:08:42.248Z,14.40
2019-04-11T14:11:13.040Z,14.80
2019-04-11T14:13:40.955Z,15.20
2019-04-11T14:16:17.866Z,15.60
2019-04-11T14:18:48.848Z,15.80
2019-04-11T14:21:22.736Z,16.20
2019-04-11T14:24:03.034Z,16.70
2019-04-11T14:26:33.794Z,16.90
2019-04-11T14:29:02.049Z,16.30
2019-04-11T14:31:45.242Z,16.40
2019-04-11T14:34:25.428Z,15.50
2019-04-11T14:37:10.448Z,15.10
2019-04-11T14:39:41.218Z,15.30
2019-04-11T14:42:25.857Z,15.30
2019-04-11T14:44:53.871Z,15.30
2019-04-11T14:47:39.177Z,15.70
2019-04-11T14:50:08.761Z,16.00
2019-04-11T14:52:46.525Z,15.50
2019-04-11T14:55:12.551Z,15.20
2019-04-11T14:57:40.576Z,14.80
2019-04-11T15:00:15.060Z,15.00
2019-04-11T15:02:45.840Z,14.90
2019-04-11T15:05:14.408Z,14.50
2019-04-11T15:07:40.646Z,14.60
2019-04-11T15:10:09.108Z,14.40
2019-04-11T15:12:36.206Z,14.20
2019-04-11T15:15:22.765Z,14.30
2019-04-11T15:17:49.354Z,14.10
2019-04-11T15:20:34.112Z,13.90
2019-04-11T15:23:06.913Z,13.80
2019-04-11T15:25:44.531Z,13.50
2019-04-11T15:28:13.129Z,13.60
2019-04-11T15:30:49.391Z,13.50
2019-04-11T15:33:26.496Z,13.40
2019-04-11T15:35:58.118Z,13.40
2019-04-11T15:38:43.592Z,13.30
2019-04-11T15:41:11.034Z,13.20
2019-04-11T15:43:55.709Z,13.30
2019-04-11T15:46:23.742Z,13.10
2019-04-11T15:49:20.054Z,13.20
2019-04-11T15:51:38.223Z,13.20
2019-04-11T15:54:06.893Z,13.10
2019-04-11T15:56:50.501Z,13.00
2019-04-11T15:59:30.493Z,13.10
2019-04-11T16:02:16.864Z,13.10
2019-04-11T16:04:47.550Z,13.00
2019-04-11T16:07:15.571Z,12.70
2019-04-11T16:09:52.872Z,12.70
2019-04-11T16:12:21.107Z,12.50
2019-04-11T16:14:48.950Z,12.20
2019-04-11T16:17:17.019Z,12.20
2019-04-11T16:19:47.585Z,12.20
2019-04-11T16:22:31.603Z,12.10
2019-04-11T16:25:08.547Z,12.20
2019-04-11T16:27:48.610Z,12.20
2019-04-11T16:30:19.435Z,12.30
2019-04-11T16:33:05.761Z,12.20
2019-04-11T16:35:33.810Z,11.90
2019-04-11T16:38:04.903Z,11.70
2019-04-11T16:40:48.174Z,11.60
2019-04-11T16:43:14.309Z,11.40
2019-04-11T16:45:42.422Z,11.40
2019-04-11T16:48:08.541Z,11.50
2019-04-11T16:50:34.909Z,11.40
2019-04-11T16:53:01.307Z,11.40
2019-04-11T16:55:27.493Z,11.40
2019-04-11T16:57:53.784Z,11.30
2019-04-11T17:00:20.596Z,11.20
2019-04-11T17:02:47.449Z,11.20
2019-04-11T17:05:13.615Z,11.10
2019-04-11T17:07:58.566Z,11.20
2019-04-11T17:10:26.813Z,11.00
2019-04-11T17:12:53.872Z,11.30
2019-04-11T17:15:21.221Z,11.60
2019-04-11T17:17:47.419Z,11.40
2019-04-11T17:20:13.647Z,11.20
2019-04-11T17:22:39.869Z,11.10
2019-04-11T17:25:06.271Z,11.10
2019-04-11T17:27:32.355Z,10.90
2019-04-11T17:29:58.489Z,10.70
2019-04-11T17:32:25.959Z,10.60
2019-04-11T17:34:52.605Z,10.40
2019-04-11T17:37:18.717Z,10.10
2019-04-11T17:39:44.883Z,10.10
2019-04-11T17:42:13.317Z,10.20
2019-04-11T17:44:39.099Z,10.20
2019-04-11T17:47:05.234Z,10.10
2019-04-11T17:49:31.459Z,9.90
2019-04-11T17:51:57.609Z,9.80
2019-04-11T17:54:24.968Z,9.70
2019-04-11T17:56:54.547Z,9.60
2019-04-11T17:59:19.776Z,9.70
2019-04-11T18:01:45.895Z,9.60
2019-04-11T18:04:13.502Z,9.50
2019-04-11T18:06:40.070Z,9.40
2019-04-11T18:09:09.063Z,9.30
2019-04-11T18:11:35.177Z,9.30
2019-04-11T18:14:01.534Z,9.20
2019-04-11T18:16:28.826Z,8.80
2019-04-11T18:18:55.802Z,8.70
2019-04-11T18:21:21.905Z,8.60
2019-04-11T18:23:50.074Z,8.50
2019-04-11T18:26:16.263Z,8.40
2019-04-11T18:28:42.489Z,8.20
2019-04-11T18:31:08.598Z,8.30
2019-04-11T18:33:34.796Z,8.30
2019-04-11T18:36:02.373Z,8.10
2019-04-11T18:38:31.766Z,8.00
2019-04-11T18:40:56.997Z,7.90
2019-04-11T18:43:25.464Z,7.80
2019-04-11T18:45:51.123Z,7.80
2019-04-11T18:48:17.256Z,7.70
2019-04-11T18:50:43.372Z,7.70
2019-04-11T18:53:09.469Z,7.60
2019-04-11T18:55:35.628Z,7.50
2019-04-11T18:58:04.728Z,7.60
2019-04-11T19:00:29.935Z,7.70
2019-04-11T19:02:56.171Z,7.60
2019-04-11T19:05:28.575Z,7.50
2019-04-11T19:07:50.801Z,7.30
2019-04-11T19:10:17.246Z,7.30
2019-04-11T19:12:43.969Z,7.30
2019-04-11T19:15:15.817Z,7.20
2019-04-11T19:17:40.697Z,7.00
2019-04-11T19:20:07.274Z,7.00
2019-04-11T19:22:37.692Z,6.90
2019-04-11T19:25:01.757Z,6.90
2019-04-11T19:27:27.976Z,6.90
2019-04-11T19:29:56.070Z,6.90
2019-04-11T19:32:22.274Z,6.90
2019-04-11T19:34:48.480Z,6.90
2019-04-11T19:37:14.642Z,6.70
2019-04-11T19:39:45.059Z,6.70
2019-04-11T19:42:09.325Z,6.70
2019-04-11T19:44:35.667Z,6.60
2019-04-11T19:47:01.763Z,6.50
2019-04-11T19:49:29.014Z,6.30
2019-04-11T19:51:55.826Z,6.30
2019-04-11T19:54:21.904Z,6.30
2019-04-11T19:56:53.162Z,6.30
2019-04-11T19:59:19.469Z,6.30
2019-04-11T20:01:45.562Z,6.20
2019-04-11T20:04:11.712Z,6.30
2019-04-11T20:06:37.836Z,6.30
2019-04-11T20:09:05.854Z,6.30
2019-04-11T20:11:32.079Z,6.20
2019-04-11T20:14:00.071Z,6.30
2019-04-11T20:16:26.195Z,6.30
2019-04-11T20:18:56.662Z,6.20
2019-04-11T20:21:20.465Z,6.20
2019-04-11T20:23:46.746Z,6.00
2019-04-11T20:26:12.894Z,6.00
2019-04-11T20:28:38.962Z,6.00
2019-04-11T20:31:05.134Z,6.10
2019-04-11T20:33:34.694Z,6.10
2019-04-11T20:35:59.357Z,6.10
2019-04-11T20:38:25.577Z,6.00
2019-04-11T20:40:52.610Z,6.10
2019-04-11T20:43:19.418Z,6.10
2019-04-11T20:45:45.504Z,5.90
2019-04-11T20:48:11.610Z,5.90
2019-04-11T20:50:37.766Z,5.90
2019-04-11T20:53:12.555Z,5.90
2019-04-11T20:55:31.982Z,5.70
2019-04-11T20:57:58.150Z,5.60
2019-04-11T21:00:24.349Z,5.50
2019-04-11T21:02:50.472Z,5.50
2019-04-11T21:05:16.710Z,5.50
2019-04-11T21:07:42.772Z,5.40
2019-04-11T21:10:08.970Z,5.30
2019-04-11T21:12:37.201Z,5.40
2019-04-11T21:15:06.245Z,5.40
2019-04-11T21:17:32.450Z,5.40
2019-04-11T21:19:58.671Z,5.30
2019-04-11T21:22:24.869Z,5.20
2019-04-11T21:24:50.968Z,5.10
2019-04-11T21:27:17.055Z,5.10
2019-04-11T21:29:43.217Z,5.10
2019-04-11T21:32:09.403Z,5.20
2019-04-11T21:34:35.523Z,5.20
2019-04-11T21:37:02.632Z,5.10
2019-04-11T21:39:28.920Z,4.90
2019-04-11T21:41:55.065Z,4.90
2019-04-11T21:44:21.240Z,4.90
2019-04-11T21:46:49.339Z,4.80
2019-04-11T21:49:15.379Z,4.80
2019-04-11T21:51:42.488Z,4.90
2019-04-11T21:54:08.813Z,4.80
2019-04-11T21:56:34.913Z,4.80
2019-04-11T21:59:01.143Z,4.70
2019-04-11T22:01:27.525Z,4.60
2019-04-11T22:03:56.923Z,4.50
2019-04-11T22:06:22.000Z,4.70
2019-04-11T22:08:48.105Z,4.50
2019-04-11T22:11:14.245Z,4.50
2019-04-11T22:13:41.009Z,4.60
2019-04-11T22:16:07.473Z,4.50
2019-04-11T22:18:33.588Z,4.50
2019-04-11T22:20:59.721Z,4.40
2019-04-11T22:23:25.805Z,4.40
2019-04-11T22:25:51.940Z,4.30
2019-04-11T22:28:18.141Z,4.50
2019-04-11T22:30:44.823Z,4.50
2019-04-11T22:33:18.841Z,4.40
2019-04-11T22:35:45.042Z,4.20
2019-04-11T22:38:11.145Z,4.20
2019-04-11T22:40:37.359Z,4.20
2019-04-11T22:43:07.500Z,4.20
2019-04-11T22:45:31.646Z,4.10
2019-04-11T22:47:57.788Z,4.10
2019-04-11T22:50:23.866Z,4.00
2019-04-11T22:52:50.027Z,4.00
2019-04-11T22:55:16.109Z,3.90
2019-04-11T22:57:43.781Z,3.90
2019-04-11T23:00:14.894Z,3.80
2019-04-11T23:02:40.888Z,3.70
2019-04-11T23:05:07.085Z,3.70
2019-04-11T23:07:33.196Z,3.80
2019-04-11T23:09:59.281Z,3.80
2019-04-11T23:12:25.457Z,3.70
2019-04-11T23:14:51.623Z,3.70
2019-04-11T23:17:17.702Z,3.80
2019-04-11T23:19:44.142Z,3.80
2019-04-11T23:22:12.173Z,3.90
2019-04-11T23:24:38.973Z,3.90
2019-04-11T23:27:05.089Z,3.90
2019-04-11T23:29:31.281Z,3.90
2019-04-11T23:31:57.417Z,3.80
2019-04-11T23:34:23.620Z,3.70
2019-04-11T23:36:51.223Z,3.80
2019-04-11T23:39:17.795Z,3.90
2019-04-11T23:41:43.909Z,3.80
2019-04-11T23:44:09.992Z,3.80
2019-04-11T23:46:36.106Z,3.70
2019-04-11T23:49:02.321Z,3.80
2019-04-11T23:51:28.426Z,3.80
2019-04-11T23:53:54.530Z,3.80
2019-04-11T23:56:20.650Z,3.80
2019-04-11T23:58:46.736Z,3.70
